Time;durP1;ratioP1;P1;durP2;ratioP2;P2;SDS_P1;SDS_P2;PMS_P1;PMS_P2;Temp;Humidity;BMP_temperature;BMP_pressure;BME280_temperature;BME280_humidity;BME280_pressure;Samples;Min_cycle;Max_cycle;Signal;HPM_P1;HPM_P2
2021/10/09 00:01:11;;;;;;;33.13;15.93;;;12.80;95.70;;;;;;4973252;28;20097;-73
2021/10/09 00:03:37;;;;;;;29.40;16.27;;;12.80;95.70;;;;;;4973503;28;20030;-72
2021/10/09 00:06:02;;;;;;;32.50;17.73;;;12.80;95.80;;;;;;4973387;28;20034;-72
2021/10/09 00:08:30;;;;;;;28.98;16.52;;;12.70;95.80;;;;;;4972758;28;20117;-72
2021/10/09 00:10:56;;;;;;;28.85;16.13;;;12.70;95.70;;;;;;4973367;28;20612;-71
2021/10/09 00:13:24;;;;;;;26.13;15.60;;;12.70;95.50;;;;;;4973304;28;20117;-72
2021/10/09 00:15:49;;;;;;;;;;;12.70;95.70;;;;;;4974445;28;20045;-72
2021/10/09 00:18:16;;;;;;;28.45;14.55;;;12.60;95.70;;;;;;4972843;28;19921;-72
2021/10/09 00:20:42;;;;;;;33.88;16.13;;;12.60;95.60;;;;;;4973003;28;20041;-72
2021/10/09 00:23:07;;;;;;;26.73;14.75;;;12.50;95.60;;;;;;4971761;28;20070;-72
2021/10/09 00:25:33;;;;;;;29.13;15.55;;;12.50;95.50;;;;;;4972737;28;20039;-72
2021/10/09 00:27:59;;;;;;;30.48;16.17;;;12.50;95.50;;;;;;4973656;28;20050;-73
2021/10/09 00:30:25;;;;;;;30.58;16.73;;;12.50;95.40;;;;;;4972706;28;20117;-73
2021/10/09 00:32:50;;;;;;;26.10;15.85;;;12.40;95.50;;;;;;4972835;28;20027;-73
2021/10/09 00:35:16;;;;;;;26.70;15.65;;;12.40;95.40;;;;;;4972637;28;20031;-72
2021/10/09 00:37:41;;;;;;;25.30;14.80;;;12.40;95.30;;;;;;4972632;28;20477;-72
2021/10/09 00:40:08;;;;;;;29.90;15.48;;;12.40;95.30;;;;;;4973083;28;20035;-72
2021/10/09 00:42:33;;;;;;;34.50;16.70;;;12.30;95.30;;;;;;4971268;28;20027;-72
2021/10/09 00:44:59;;;;;;;28.83;15.02;;;12.30;95.40;;;;;;4972541;28;20456;-72
2021/10/09 00:47:25;;;;;;;27.90;15.32;;;12.30;95.30;;;;;;4972534;28;20030;-72
2021/10/09 00:49:51;;;;;;;28.92;15.73;;;12.30;95.50;;;;;;4972529;28;20682;-72
2021/10/09 00:52:17;;;;;;;28.27;15.57;;;12.20;95.40;;;;;;4972385;28;20046;-72
2021/10/09 00:54:45;;;;;;;30.63;15.00;;;12.20;95.50;;;;;;4972951;28;20114;-71
2021/10/09 00:57:13;;;;;;;31.42;15.05;;;12.20;95.60;;;;;;4972524;28;20497;-72
2021/10/09 00:59:40;;;;;;;27.23;15.52;;;12.10;95.60;;;;;;4972330;28;20049;-72
2021/10/09 01:02:06;;;;;;;28.90;15.23;;;12.10;95.70;;;;;;4972602;28;20154;-72
2021/10/09 01:04:33;;;;;;;27.35;15.52;;;12.10;95.50;;;;;;4972303;28;20118;-72
2021/10/09 01:07:00;;;;;;;35.00;15.63;;;12.10;95.40;;;;;;4973356;28;20030;-72
2021/10/09 01:09:26;;;;;;;31.90;15.85;;;12.10;95.50;;;;;;4972242;28;20031;-72
2021/10/09 01:11:52;;;;;;;33.20;16.00;;;12.00;95.50;;;;;;4972158;28;20094;-72
2021/10/09 01:14:18;;;;;;;37.08;15.95;;;12.00;95.50;;;;;;4972105;28;20078;-72
2021/10/09 01:16:45;;;;;;;28.63;15.35;;;12.00;95.50;;;;;;4972204;28;20063;-72
2021/10/09 01:19:10;;;;;;;34.22;14.77;;;12.00;95.60;;;;;;4973337;28;20025;-72
2021/10/09 01:21:44;;;;;;;33.10;15.60;;;12.00;95.60;;;;;;4976328;28;20022;-72
2021/10/09 01:24:11;;;;;;;31.05;16.02;;;11.90;95.70;;;;;;4975973;28;20059;-72
2021/10/09 01:26:37;;;;;;;28.92;13.48;;;11.80;95.70;;;;;;4975784;28;20117;-72
2021/10/09 01:29:04;;;;;;;32.95;15.50;;;11.80;95.50;;;;;;4975971;28;20370;-72
2021/10/09 01:31:31;;;;;;;30.02;14.93;;;11.80;95.50;;;;;;4975945;28;20032;-72
2021/10/09 01:33:57;;;;;;;32.70;15.20;;;11.80;95.50;;;;;;4976471;28;20058;-72
2021/10/09 01:36:28;;;;;;;30.70;14.98;;;11.80;95.50;;;;;;4988388;28;20041;-72
2021/10/09 01:38:54;;;;;;;32.45;14.82;;;11.70;95.40;;;;;;4995232;28;20504;-72
2021/10/09 01:41:20;;;;;;;28.48;14.30;;;11.70;95.40;;;;;;4995041;28;20034;-72
2021/10/09 01:43:45;;;;;;;25.70;14.18;;;11.70;95.40;;;;;;4995186;28;20038;-72
2021/10/09 01:46:11;;;;;;;28.40;15.23;;;11.70;95.30;;;;;;4995755;28;20510;-71
2021/10/09 01:48:38;;;;;;;29.98;14.43;;;11.70;95.40;;;;;;4994521;28;20832;-72
2021/10/09 01:51:05;;;;;;;31.27;15.10;;;11.60;95.30;;;;;;4995101;28;20115;-72
2021/10/09 01:53:31;;;;;;;30.58;14.52;;;11.60;95.40;;;;;;4994838;28;20565;-72
2021/10/09 01:55:57;;;;;;;30.65;14.38;;;11.50;95.40;;;;;;4995228;28;20042;-71
2021/10/09 01:58:23;;;;;;;24.92;13.68;;;11.50;95.30;;;;;;4995046;28;20464;-72
2021/10/09 02:00:49;;;;;;;29.13;13.63;;;11.50;95.20;;;;;;4995405;28;20030;-72
2021/10/09 02:03:18;;;;;;;28.77;14.57;;;11.50;95.20;;;;;;4994729;28;20038;-71
2021/10/09 02:05:44;;;;;;;33.88;14.23;;;11.50;95.00;;;;;;4994818;28;20030;-71
2021/10/09 02:08:09;;;;;;;28.20;14.32;;;11.50;95.10;;;;;;4994815;28;20023;-72
2021/10/09 02:10:43;;;;;;;34.15;15.02;;;11.50;95.20;;;;;;4994775;28;20030;-71
2021/10/09 02:13:11;;;;;;;26.35;14.55;;;11.40;95.20;;;;;;4994521;28;20535;-71
2021/10/09 02:15:45;;;;;;;29.00;13.75;;;11.40;95.10;;;;;;4994938;28;20030;-72
2021/10/09 02:18:34;;;;;;;27.02;13.70;;;11.40;95.10;;;;;;4994402;28;20030;-72
2021/10/09 02:26:30;;;;;;;33.20;14.32;;;11.30;95.20;;;;;;4994220;28;20084;-72
2021/10/09 02:28:55;;;;;;;30.73;13.73;;;11.30;95.10;;;;;;4993240;28;20377;-72
2021/10/09 02:31:21;;;;;;;25.15;14.27;;;11.20;95.20;;;;;;4993850;28;20038;-72
2021/10/09 02:33:47;;;;;;;36.55;15.07;;;11.20;95.20;;;;;;4994956;28;20034;-72
2021/10/09 02:36:12;;;;;;;30.67;14.10;;;11.20;95.10;;;;;;4994094;28;20384;-72
2021/10/09 02:38:38;;;;;;;29.55;13.20;;;11.20;95.10;;;;;;4994008;28;20385;-71
2021/10/09 02:41:04;;;;;;;27.50;13.75;;;11.20;95.10;;;;;;4994193;28;20109;-71
2021/10/09 02:43:29;;;;;;;23.92;12.93;;;11.20;95.00;;;;;;4993776;28;20577;-71
2021/10/09 02:45:55;;;;;;;30.45;13.23;;;11.10;94.90;;;;;;4994675;28;20030;-71
2021/10/09 02:48:20;;;;;;;26.80;14.45;;;11.10;94.80;;;;;;4994233;28;20038;-71
2021/10/09 02:50:46;;;;;;;21.48;11.95;;;11.10;94.70;;;;;;4993880;28;20473;-71
2021/10/09 02:53:12;;;;;;;26.50;13.13;;;11.10;94.70;;;;;;4994104;28;20045;-71
2021/10/09 02:55:38;;;;;;;25.88;13.65;;;11.10;94.80;;;;;;4993889;28;20031;-71
2021/10/09 02:58:04;;;;;;;32.30;14.15;;;11.00;94.70;;;;;;4994262;28;20034;-72
2021/10/09 03:00:30;;;;;;;28.20;13.23;;;11.00;94.90;;;;;;4993714;28;20040;-72
2021/10/09 03:02:56;;;;;;;32.17;14.82;;;10.90;95.00;;;;;;4992688;28;20088;-72
2021/10/09 03:05:22;;;;;;;24.90;13.27;;;10.90;94.90;;;;;;4994027;28;20401;-72
2021/10/09 03:07:47;;;;;;;25.60;13.55;;;10.90;94.80;;;;;;4993437;28;20053;-72
2021/10/09 03:10:13;;;;;;;26.05;13.43;;;10.90;94.80;;;;;;4993685;28;20101;-71
2021/10/09 03:12:40;;;;;;;24.48;12.35;;;10.90;94.80;;;;;;4993477;28;20062;-72
2021/10/09 03:15:07;;;;;;;22.55;12.43;;;10.80;94.70;;;;;;4994059;28;20045;-72
2021/10/09 03:17:32;;;;;;;28.60;12.88;;;10.80;94.70;;;;;;4993528;28;20038;-72
2021/10/09 03:19:58;;;;;;;28.77;13.27;;;10.80;94.70;;;;;;4993601;28;20077;-72
2021/10/09 03:22:24;;;;;;;25.52;13.38;;;10.80;94.60;;;;;;4993460;28;20037;-72
2021/10/09 03:24:49;;;;;;;32.45;13.02;;;10.80;94.50;;;;;;4993787;28;20369;-72
2021/10/09 03:27:15;;;;;;;29.77;14.10;;;10.70;94.50;;;;;;4993873;28;20420;-72
2021/10/09 03:29:41;;;;;;;29.65;13.70;;;10.70;94.60;;;;;;4993166;28;20109;-72
2021/10/09 03:32:06;;;;;;;21.35;12.30;;;10.70;94.60;;;;;;4993363;28;20137;-72
2021/10/09 03:34:35;;;;;;;27.92;12.52;;;10.70;94.40;;;;;;4993070;28;20492;-72
2021/10/09 03:37:05;;;;;;;30.48;12.57;;;10.60;94.40;;;;;;4993599;28;20045;-72
2021/10/09 03:39:32;;;;;;;30.98;13.50;;;10.60;94.60;;;;;;4993139;28;20481;-72
2021/10/09 03:42:08;;;;;;;26.73;12.60;;;10.50;94.60;;;;;;4992131;28;20061;-71
2021/10/09 03:44:40;;;;;;;28.30;12.65;;;10.50;94.40;;;;;;4992013;28;20071;-72
2021/10/09 03:49:47;;;;;;;27.73;12.77;;;10.50;94.50;;;;;;4993192;28;20421;-72
2021/10/09 03:54:57;;;;;;;23.02;12.32;;;10.50;94.20;;;;;;4993601;28;20038;-72
2021/10/09 03:57:23;;;;;;;28.83;13.68;;;10.40;94.30;;;;;;4992872;28;20026;-72
2021/10/09 03:59:49;;;;;;;22.50;12.32;;;10.40;94.30;;;;;;4992732;28;20038;-72
2021/10/09 04:02:14;;;;;;;28.65;13.23;;;10.40;94.30;;;;;;4992913;28;20042;-72
2021/10/09 04:04:40;;;;;;;29.70;13.60;;;10.40;94.40;;;;;;4992347;28;20050;-72
2021/10/09 04:07:05;;;;;;;24.85;12.68;;;10.40;94.30;;;;;;4992822;28;20329;-72
2021/10/09 04:09:31;;;;;;;31.13;12.73;;;10.30;94.30;;;;;;4992657;28;20023;-72
2021/10/09 04:11:56;;;;;;;22.80;12.55;;;10.30;94.20;;;;;;4992086;28;20062;-72
2021/10/09 04:14:22;;;;;;;28.75;12.70;;;10.30;94.20;;;;;;4992508;28;20081;-72
2021/10/09 04:16:47;;;;;;;22.17;12.23;;;10.30;94.20;;;;;;4992165;28;20057;-72
2021/10/09 04:19:13;;;;;;;33.45;13.20;;;10.30;94.20;;;;;;4992421;28;20053;-73
2021/10/09 04:21:38;;;;;;;24.48;12.75;;;10.20;94.10;;;;;;4992552;28;20060;-71
2021/10/09 04:24:04;;;;;;;33.00;12.93;;;10.20;94.20;;;;;;4992485;28;20035;-71
2021/10/09 04:26:30;;;;;;;30.23;12.60;;;10.20;94.20;;;;;;4992232;28;20096;-73
2021/10/09 04:28:55;;;;;;;23.88;12.20;;;10.20;94.30;;;;;;4992289;28;20038;-71
2021/10/09 04:31:21;;;;;;;32.40;12.57;;;10.20;94.20;;;;;;4992226;28;20113;-72
2021/10/09 04:33:46;;;;;;;26.08;12.52;;;10.10;94.20;;;;;;4992588;28;20032;-72
2021/10/09 04:36:12;;;;;;;23.88;12.63;;;10.00;94.50;;;;;;4991996;28;20031;-72
2021/10/09 04:38:38;;;;;;;24.73;12.73;;;10.10;94.40;;;;;;4992117;28;20093;-72
2021/10/09 04:41:03;;;;;;;25.08;13.20;;;10.00;94.20;;;;;;4992076;28;20472;-72
2021/10/09 04:43:29;;;;;;;25.58;12.70;;;10.00;94.10;;;;;;4991977;28;20061;-74
2021/10/09 04:45:54;;;;;;;27.67;12.40;;;10.00;94.20;;;;;;4992333;28;20101;-73
2021/10/09 04:48:20;;;;;;;26.95;13.13;;;10.00;94.20;;;;;;4992072;28;20061;-72
2021/10/09 04:50:46;;;;;;;24.10;12.48;;;9.90;94.80;;;;;;4992048;28;20038;-73
2021/10/09 04:53:11;;;;;;;26.55;11.65;;;9.90;94.90;;;;;;4992048;28;20042;-72
2021/10/09 04:55:37;;;;;;;23.83;13.15;;;9.90;95.00;;;;;;4992326;28;20041;-72
2021/10/09 04:58:03;;;;;;;23.45;12.68;;;9.90;94.90;;;;;;4992166;28;20030;-72
2021/10/09 05:00:28;;;;;;;26.17;12.70;;;9.80;94.90;;;;;;4992036;28;20034;-72
2021/10/09 05:02:54;;;;;;;27.33;13.10;;;9.80;94.80;;;;;;4991639;28;20361;-72
2021/10/09 05:05:20;;;;;;;29.30;13.00;;;9.80;94.80;;;;;;4991890;28;20030;-71
2021/10/09 05:07:45;;;;;;;28.70;13.25;;;9.80;94.70;;;;;;4991849;28;20027;-73
2021/10/09 05:10:11;;;;;;;28.33;13.43;;;9.80;94.80;;;;;;4991512;28;20432;-71
2021/10/09 05:12:37;;;;;;;28.05;12.25;;;9.70;94.80;;;;;;4992125;28;20121;-70
2021/10/09 05:15:06;;;;;;;28.98;13.10;;;9.80;94.80;;;;;;4991535;28;20132;-71
2021/10/09 05:17:31;;;;;;;24.25;12.20;;;9.70;94.80;;;;;;4991779;28;20046;-71
2021/10/09 05:19:57;;;;;;;29.75;13.05;;;9.70;94.90;;;;;;4990538;28;20133;-71
2021/10/09 05:22:23;;;;;;;24.13;12.82;;;9.70;95.00;;;;;;4991673;28;20330;-73
2021/10/09 05:24:51;;;;;;;29.75;12.18;;;9.70;95.00;;;;;;4991936;28;20069;-71
2021/10/09 05:27:17;;;;;;;;;;;9.60;95.00;;;;;;4992362;28;20145;-73
2021/10/09 05:29:42;;;;;;;23.83;12.02;;;9.40;95.10;;;;;;4991811;28;19921;-71
2021/10/09 05:32:08;;;;;;;26.10;11.90;;;9.40;95.10;;;;;;4991610;28;20054;-71
2021/10/09 05:34:34;;;;;;;26.23;12.23;;;9.50;95.10;;;;;;4991817;28;20027;-71
2021/10/09 05:37:01;;;;;;;26.30;12.63;;;9.50;94.90;;;;;;4991788;28;20032;-71
2021/10/09 05:39:26;;;;;;;30.35;12.15;;;9.60;94.90;;;;;;4991638;28;20022;-72
2021/10/09 05:41:52;;;;;;;26.27;12.65;;;9.60;94.80;;;;;;4991397;28;20134;-72
2021/10/09 05:44:18;;;;;;;28.20;13.75;;;9.70;94.80;;;;;;4991356;28;20073;-71
2021/10/09 05:46:43;;;;;;;24.88;11.82;;;9.60;94.70;;;;;;4990402;28;20036;-72
2021/10/09 05:49:09;;;;;;;22.50;12.02;;;9.60;94.70;;;;;;4991514;28;20065;-71
2021/10/09 05:51:42;;;;;;;29.60;11.98;;;9.50;94.80;;;;;;4992061;28;20026;-73
2021/10/09 05:54:14;;;;;;;25.83;12.65;;;9.50;94.80;;;;;;4991233;28;20484;-73
2021/10/09 06:02:05;;;;;;;23.48;12.70;;;9.40;94.90;;;;;;4991756;28;20099;-72
2021/10/09 06:25:26;;;;;;;30.40;11.85;;;9.50;94.90;;;;;;4995453;28;20292;-72
2021/10/09 06:32:11;;;;;;;35.45;13.10;;;9.50;94.40;;;;;;4994873;28;20066;-72
2021/10/09 06:48:15;;;;;;;42.55;20.20;;;9.50;94.30;;;;;;4994492;28;20412;-73
2021/10/09 06:51:02;;;;;;;26.00;12.10;;;9.50;94.40;;;;;;4994232;28;20038;-73
2021/10/09 07:01:40;;;;;;;27.67;12.57;;;9.50;94.60;;;;;;4993789;28;20109;-71
2021/10/09 07:04:05;;;;;;;23.98;12.35;;;9.60;94.60;;;;;;4992697;28;20038;-71
2021/10/09 07:06:32;;;;;;;27.27;12.38;;;9.60;94.50;;;;;;4992546;28;20453;-72
2021/10/09 07:08:57;;;;;;;36.35;11.73;;;9.60;94.50;;;;;;4993623;28;20077;-72
2021/10/09 07:11:23;;;;;;;29.67;12.88;;;9.70;94.70;;;;;;4993198;28;20054;-72
2021/10/09 07:13:48;;;;;;;29.30;13.38;;;9.70;94.80;;;;;;4993696;28;20420;-71
2021/10/09 07:16:14;;;;;;;31.00;12.82;;;9.70;94.70;;;;;;4993192;28;20469;-71
2021/10/09 07:18:39;;;;;;;22.10;11.35;;;9.80;94.80;;;;;;4994141;28;20019;-71
2021/10/09 07:21:05;;;;;;;35.95;13.38;;;9.80;94.80;;;;;;4993789;28;20122;-71
2021/10/09 07:23:30;;;;;;;25.83;11.73;;;9.80;94.80;;;;;;4993579;28;20544;-73
2021/10/09 07:25:56;;;;;;;32.45;12.88;;;9.90;94.70;;;;;;4993272;28;20034;-72
2021/10/09 07:28:22;;;;;;;29.05;12.93;;;10.00;94.10;;;;;;4992968;28;20038;-73
2021/10/09 07:30:47;;;;;;;34.40;13.65;;;10.00;94.20;;;;;;4993335;28;20065;-74
2021/10/09 07:33:13;;;;;;;26.25;13.38;;;10.00;94.20;;;;;;4993294;28;20065;-73
2021/10/09 07:35:38;;;;;;;32.65;14.18;;;10.00;94.20;;;;;;4992973;28;20371;-73
2021/10/09 07:38:04;;;;;;;29.50;14.00;;;10.00;94.50;;;;;;4992874;28;20116;-72
2021/10/09 07:40:29;;;;;;;32.05;12.75;;;10.10;94.20;;;;;;4993124;28;20074;-72
2021/10/09 07:42:55;;;;;;;35.47;14.85;;;10.10;94.30;;;;;;4992879;28;20023;-72
2021/10/09 07:45:20;;;;;;;29.83;13.50;;;10.20;94.30;;;;;;4992992;28;20400;-73
2021/10/09 07:47:46;;;;;;;39.47;13.40;;;10.20;94.30;;;;;;4992728;28;20185;-73
2021/10/09 07:50:12;;;;;;;32.33;14.25;;;10.30;94.20;;;;;;4992973;28;20030;-73
2021/10/09 07:52:38;;;;;;;33.75;13.60;;;10.40;94.00;;;;;;4991557;28;20035;-72
2021/10/09 07:55:05;;;;;;;28.70;12.73;;;10.40;93.80;;;;;;4992646;28;20097;-73
2021/10/09 07:57:30;;;;;;;33.63;13.55;;;10.50;93.70;;;;;;4992216;28;20113;-73
2021/10/09 07:59:56;;;;;;;30.05;14.65;;;10.50;93.60;;;;;;4992557;28;20117;-73
2021/10/09 08:02:22;;;;;;;29.55;13.60;;;10.50;93.70;;;;;;4992288;28;20031;-73
2021/10/09 08:04:47;;;;;;;56.45;27.63;;;10.50;93.70;;;;;;4992484;28;20042;-73
2021/10/09 08:07:13;;;;;;;33.22;16.27;;;10.50;93.80;;;;;;4992527;28;20023;-73
2021/10/09 08:09:38;;;;;;;28.70;13.82;;;10.60;93.70;;;;;;4992244;28;20413;-72
2021/10/09 08:12:04;;;;;;;28.70;13.98;;;10.70;93.70;;;;;;4991849;28;20050;-72
2021/10/09 08:14:30;;;;;;;43.47;15.32;;;10.70;93.50;;;;;;4990740;28;20058;-72
2021/10/09 08:16:56;;;;;;;31.77;14.25;;;10.80;93.60;;;;;;4991950;28;20035;-72
2021/10/09 08:19:21;;;;;;;30.00;14.55;;;10.90;93.50;;;;;;4991692;28;20054;-72
2021/10/09 08:21:47;;;;;;;35.17;14.27;;;10.90;93.50;;;;;;4992488;28;20117;-72
2021/10/09 08:40:20;;;;;;;30.15;13.60;;;12.10;93.70;;;;;;4991816;28;20050;-71
2021/10/09 08:42:45;;;;;;;28.02;13.48;;;13.00;92.90;;;;;;4991708;28;20031;-70
2021/10/09 08:45:13;;;;;;;28.42;12.65;;;13.80;92.00;;;;;;4991543;28;20026;-70
2021/10/09 08:47:39;;;;;;;30.52;13.02;;;14.40;90.40;;;;;;4991519;28;20114;-74
2021/10/09 08:50:08;;;;;;;22.63;12.07;;;15.10;91.40;;;;;;4991669;28;20117;-72
2021/10/09 08:52:34;;;;;;;27.55;11.80;;;15.60;90.40;;;;;;4991650;28;20045;-71
2021/10/09 08:55:21;;;;;;;20.95;11.40;;;16.40;88.50;;;;;;4991785;28;20098;-71
2021/10/09 08:57:48;;;;;;;24.60;11.90;;;17.30;85.70;;;;;;4991555;28;20057;-71
2021/10/09 09:00:16;;;;;;;22.00;11.55;;;18.00;84.30;;;;;;4991083;28;20080;-72
2021/10/09 09:03:09;;;;;;;26.33;11.68;;;18.70;81.20;;;;;;4990091;28;20038;-71
2021/10/09 09:27:53;;;;;;;25.67;11.88;;;23.70;66.40;;;;;;4991241;28;20069;-71
2021/10/09 09:30:41;;;;;;;28.95;12.68;;;24.00;63.90;;;;;;4991070;28;20066;-72
2021/10/09 09:33:33;;;;;;;29.63;11.65;;;23.70;61.80;;;;;;4991258;28;20058;-71
2021/10/09 09:41:49;;;;;;;27.45;12.27;;;26.00;57.70;;;;;;4970569;28;20093;-73
2021/10/09 09:44:16;;;;;;;26.88;12.30;;;26.10;56.30;;;;;;4982927;28;20476;-73
2021/10/09 09:46:59;;;;;;;22.83;12.07;;;25.10;55.50;;;;;;4994794;28;20535;-72
2021/10/09 09:49:27;;;;;;;20.05;11.98;;;25.00;56.20;;;;;;4994782;28;20057;-72
2021/10/09 09:51:54;;;;;;;31.58;12.10;;;25.40;56.10;;;;;;4994968;28;20034;-72
2021/10/09 09:54:25;;;;;;;27.42;12.75;;;24.80;55.40;;;;;;4994576;28;20038;-72
2021/10/09 09:57:02;;;;;;;25.05;12.27;;;24.60;56.20;;;;;;4994452;28;20031;-73
2021/10/09 09:59:33;;;;;;;25.40;12.32;;;25.80;57.40;;;;;;4994597;28;20254;-73
2021/10/09 10:02:04;;;;;;;25.33;11.45;;;27.10;55.60;;;;;;4994398;28;20044;-71
2021/10/09 10:04:34;;;;;;;29.92;12.52;;;28.00;53.40;;;;;;4993160;28;20089;-72
2021/10/09 10:07:01;;;;;;;22.80;11.57;;;28.30;52.80;;;;;;4993637;28;20030;-72
2021/10/09 10:09:28;;;;;;;24.85;12.77;;;28.70;51.60;;;;;;4994082;28;20031;-71
2021/10/09 10:11:59;;;;;;;21.85;12.50;;;28.60;50.50;;;;;;4993718;28;20050;-71
2021/10/09 10:14:28;;;;;;;28.13;12.43;;;28.90;49.30;;;;;;4993992;28;20405;-73
2021/10/09 10:16:55;;;;;;;23.48;12.27;;;29.00;49.20;;;;;;4994124;28;20424;-73
2021/10/09 10:19:40;;;;;;;29.52;13.38;;;28.40;50.10;;;;;;4994279;28;20408;-72
2021/10/09 10:22:06;;;;;;;36.47;19.13;;;28.60;49.90;;;;;;4994342;28;20030;-72
2021/10/09 10:24:50;;;;;;;27.55;12.35;;;28.70;48.20;;;;;;4993928;28;20048;-73
2021/10/09 10:27:40;;;;;;;21.80;12.32;;;28.60;49.10;;;;;;4994083;28;20038;-72
2021/10/09 10:30:14;;;;;;;23.25;12.20;;;29.10;48.00;;;;;;4993964;28;20461;-73
2021/10/09 10:32:57;;;;;;;20.52;11.13;;;28.80;47.70;;;;;;4993930;28;20038;-72
2021/10/09 10:35:34;;;;;;;17.23;11.05;;;29.10;47.00;;;;;;4984261;28;20042;-72
2021/10/09 10:38:33;;;;;;;24.17;11.05;;;29.20;47.00;;;;;;4981096;28;20038;-72
2021/10/09 10:41:00;;;;;;;26.70;11.00;;;29.10;46.60;;;;;;4993624;28;20048;-71
2021/10/09 10:46:00;;;;;;;24.20;10.45;;;27.80;45.80;;;;;;4994418;28;20026;-71
2021/10/09 10:48:55;;;;;;;18.27;10.02;;;28.10;46.30;;;;;;4993888;28;20478;-71
2021/10/09 10:57:04;;;;;;;16.52;9.45;;;29.50;44.30;;;;;;4989979;28;20038;-70
2021/10/09 11:02:20;;;;;;;22.17;9.57;;;29.40;42.80;;;;;;4993657;28;20034;-70
2021/10/09 11:04:47;;;;;;;23.60;10.38;;;28.90;43.10;;;;;;4993753;28;20049;-71
2021/10/09 11:07:14;;;;;;;25.33;10.07;;;29.30;43.10;;;;;;4993691;28;20037;-71
2021/10/09 11:09:41;;;;;;;19.48;9.48;;;29.60;43.20;;;;;;4993673;28;20205;-71
2021/10/09 11:12:22;;;;;;;17.45;9.57;;;28.10;42.30;;;;;;4992910;28;20064;-71
2021/10/09 11:14:47;;;;;;;19.10;9.60;;;28.40;42.50;;;;;;4993404;28;20105;-72
2021/10/09 11:17:13;;;;;;;22.40;8.82;;;28.30;42.20;;;;;;4993235;28;20150;-70
2021/10/09 11:19:49;;;;;;;21.52;9.75;;;29.10;42.00;;;;;;4993370;28;20041;-72
2021/10/09 11:22:19;;;;;;;14.50;8.80;;;29.60;42.30;;;;;;4992209;28;20364;-71
2021/10/09 11:24:51;;;;;;;23.73;8.90;;;29.10;41.90;;;;;;4993688;28;20026;-71
2021/10/09 11:27:18;;;;;;;17.73;9.35;;;28.60;41.70;;;;;;4993403;28;20031;-71
2021/10/09 11:30:05;;;;;;;20.38;11.20;;;27.60;42.80;;;;;;4992975;28;20069;-71
2021/10/09 11:32:33;;;;;;;20.80;9.63;;;27.20;43.50;;;;;;4992777;28;20046;-71
2021/10/09 11:34:59;;;;;;;15.50;9.00;;;26.60;43.50;;;;;;4992556;28;20034;-71
2021/10/09 11:37:25;;;;;;;17.35;9.15;;;25.70;44.30;;;;;;4992594;28;20334;-69
2021/10/09 11:39:55;;;;;;;16.67;8.00;;;25.30;44.50;;;;;;4993178;28;20025;-71
2021/10/09 11:42:25;;;;;;;34.75;19.67;;;24.60;45.10;;;;;;4992154;28;20022;-70
2021/10/09 11:45:01;;;;;;;21.98;9.85;;;24.10;45.90;;;;;;4992314;28;20413;-70
2021/10/09 11:56:04;;;;;;;16.85;7.78;;;22.80;46.20;;;;;;4992316;28;20041;-70
2021/10/09 11:58:30;;;;;;;12.70;7.93;;;22.50;46.90;;;;;;4992642;28;20160;-70
2021/10/09 12:00:56;;;;;;;16.90;7.70;;;22.40;47.20;;;;;;4993081;28;20046;-70
2021/10/09 12:03:29;;;;;;;22.08;7.60;;;22.20;47.00;;;;;;4992099;28;20478;-70
2021/10/09 12:06:08;;;;;;;21.30;7.63;;;21.90;47.70;;;;;;4992645;28;20457;-72
2021/10/09 12:08:41;;;;;;;16.05;7.72;;;21.60;47.00;;;;;;4992476;28;20026;-70
2021/10/09 12:11:15;;;;;;;16.23;7.28;;;21.50;47.70;;;;;;4991844;28;20093;-71
2021/10/09 12:13:44;;;;;;;16.50;7.10;;;21.40;48.10;;;;;;4992181;28;20045;-71
2021/10/09 12:16:10;;;;;;;14.30;7.60;;;21.30;48.60;;;;;;4992288;28;20034;-71
2021/10/09 12:18:56;;;;;;;12.60;7.05;;;21.00;48.80;;;;;;4992622;28;20023;-71
2021/10/09 12:21:28;;;;;;;21.58;7.43;;;20.90;48.10;;;;;;4991957;28;20054;-71
2021/10/09 12:23:55;;;;;;;17.05;6.68;;;21.00;47.90;;;;;;4992293;28;20038;-72
2021/10/09 12:26:23;;;;;;;15.68;6.60;;;21.00;47.80;;;;;;4991771;28;20473;-70
2021/10/09 12:29:19;;;;;;;20.05;7.63;;;20.90;47.90;;;;;;4992002;28;20049;-71
2021/10/09 12:31:47;;;;;;;15.63;7.25;;;20.90;47.60;;;;;;4991091;28;20027;-70
2021/10/09 12:34:32;;;;;;;16.80;6.35;;;20.80;48.40;;;;;;4990942;28;20116;-70
2021/10/09 12:37:13;;;;;;;14.43;7.28;;;20.70;48.00;;;;;;4992283;28;20160;-70
2021/10/09 12:39:39;;;;;;;20.60;7.78;;;20.60;48.30;;;;;;4992035;28;20488;-70
2021/10/09 12:42:05;;;;;;;17.80;6.57;;;20.50;48.00;;;;;;4991295;28;20034;-70
2021/10/09 12:44:31;;;;;;;18.95;6.72;;;20.40;48.20;;;;;;4991782;28;20208;-71
2021/10/09 12:46:57;;;;;;;81.10;31.17;;;20.40;48.70;;;;;;4991727;28;20147;-71
2021/10/09 12:49:22;;;;;;;16.60;7.50;;;20.30;48.20;;;;;;4990761;28;20445;-70
2021/10/09 12:51:49;;;;;;;13.02;5.68;;;20.20;47.90;;;;;;4992140;28;20473;-71
2021/10/09 12:54:18;;;;;;;15.25;5.90;;;20.20;48.40;;;;;;4990617;28;20034;-70
2021/10/09 12:56:44;;;;;;;11.35;4.95;;;20.00;48.20;;;;;;4991136;28;20034;-70
2021/10/09 12:59:10;;;;;;;21.15;5.32;;;20.10;47.60;;;;;;4991519;28;20034;-71
2021/10/09 13:01:36;;;;;;;9.88;5.25;;;19.90;47.30;;;;;;4991720;28;20041;-71
2021/10/09 13:04:02;;;;;;;16.95;5.55;;;19.80;47.40;;;;;;4992300;28;20026;-71
2021/10/09 13:06:28;;;;;;;15.35;5.45;;;19.70;46.90;;;;;;4991652;28;20031;-72
2021/10/09 13:08:53;;;;;;;8.23;4.28;;;19.60;47.10;;;;;;4991699;28;20352;-72
2021/10/09 13:11:32;;;;;;;11.27;5.05;;;19.70;47.70;;;;;;4991319;28;20060;-71
2021/10/09 13:13:57;;;;;;;14.38;5.22;;;19.50;47.90;;;;;;4992600;28;20034;-71
2021/10/09 13:16:23;;;;;;;16.80;8.13;;;19.50;47.80;;;;;;4994368;28;20030;-72
2021/10/09 13:18:48;;;;;;;14.70;5.00;;;19.50;48.50;;;;;;4995991;28;20018;-71
2021/10/09 13:21:14;;;;;;;13.10;5.65;;;19.50;49.50;;;;;;4995591;28;20030;-72
2021/10/09 13:23:40;;;;;;;13.90;5.05;;;19.60;48.70;;;;;;4995346;28;20046;-71
2021/10/09 13:26:06;;;;;;;10.35;4.97;;;19.60;48.90;;;;;;4994945;28;20030;-71
2021/10/09 13:28:31;;;;;;;14.55;4.78;;;19.60;49.00;;;;;;4993954;28;20493;-71
2021/10/09 13:30:58;;;;;;;12.55;5.20;;;19.60;49.20;;;;;;4995995;28;20106;-73
2021/10/09 13:33:24;;;;;;;16.63;5.97;;;19.40;49.00;;;;;;4995830;28;20038;-71
2021/10/09 13:35:50;;;;;;;14.35;5.32;;;19.60;51.50;;;;;;4996229;28;20041;-72
2021/10/09 13:38:16;;;;;;;9.85;4.75;;;19.60;50.50;;;;;;4996108;28;20403;-72
2021/10/09 13:40:42;;;;;;;15.07;4.95;;;19.50;50.30;;;;;;4996239;28;20034;-71
2021/10/09 13:43:12;;;;;;;12.07;5.00;;;19.50;50.50;;;;;;4995561;28;20027;-72
2021/10/09 13:45:45;;;;;;;8.27;4.65;;;19.30;50.20;;;;;;4996144;28;20334;-73
2021/10/09 13:48:11;;;;;;;17.33;5.40;;;19.40;50.60;;;;;;4995871;28;20357;-71
2021/10/09 13:50:55;;;;;;;20.95;7.18;;;19.40;50.40;;;;;;4995994;28;20027;-70
2021/10/09 13:53:21;;;;;;;11.30;4.80;;;19.20;50.10;;;;;;4986269;28;20729;-71
2021/10/09 13:55:47;;;;;;;13.48;4.90;;;19.40;50.50;;;;;;4980395;28;20038;-71
2021/10/09 13:58:14;;;;;;;15.05;4.65;;;19.40;50.10;;;;;;4995641;28;20033;-72
2021/10/09 14:00:42;;;;;;;10.25;4.88;;;19.40;50.00;;;;;;4996045;28;20027;-72
2021/10/09 14:03:08;;;;;;;11.30;5.05;;;19.30;50.30;;;;;;4994633;28;20096;-71
2021/10/09 14:05:34;;;;;;;22.42;5.30;;;19.30;50.10;;;;;;4995011;28;20027;-72
2021/10/09 14:08:02;;;;;;;17.70;5.00;;;19.30;50.10;;;;;;4994846;28;20381;-73
2021/10/09 14:10:28;;;;;;;11.32;5.05;;;19.20;50.10;;;;;;4994995;28;20143;-73
2021/10/09 14:12:55;;;;;;;17.35;5.40;;;19.20;50.30;;;;;;4995149;28;20050;-73
2021/10/09 14:15:21;;;;;;;18.67;5.27;;;19.10;50.80;;;;;;4995249;28;20121;-73
2021/10/09 14:17:47;;;;;;;10.70;4.65;;;19.10;51.00;;;;;;4994702;28;20500;-72
2021/10/09 14:20:12;;;;;;;14.45;4.25;;;19.00;51.10;;;;;;4995075;28;20046;-70
2021/10/09 14:22:39;;;;;;;15.35;5.65;;;19.10;51.00;;;;;;4994905;28;20389;-73
2021/10/09 14:25:06;;;;;;;11.82;4.53;;;19.00;50.80;;;;;;4994981;28;20026;-72
2021/10/09 14:27:32;;;;;;;10.63;4.75;;;18.90;51.10;;;;;;4994145;28;20037;-72
2021/10/09 14:29:58;;;;;;;10.18;4.20;;;18.90;51.20;;;;;;4994773;28;20034;-73
2021/10/09 14:32:26;;;;;;;8.38;4.30;;;18.90;52.10;;;;;;4994552;28;20031;-72
2021/10/09 14:34:52;;;;;;;16.75;4.93;;;18.60;51.80;;;;;;4991391;28;20034;-72
2021/10/09 14:37:17;;;;;;;12.75;4.82;;;18.70;51.70;;;;;;4993601;28;20033;-71
2021/10/09 14:39:44;;;;;;;10.88;4.88;;;18.70;51.80;;;;;;4995307;28;20400;-72
2021/10/09 14:42:10;;;;;;;11.73;5.18;;;18.60;51.40;;;;;;4994666;28;20030;-71